sensor_id;sensor_type;location;lat;lon;timestamp;P1;durP1;ratioP1;P2;durP2;ratioP2
151;SDS011;68;48.792;9.164;2022-07-29T00:00:06;5.33;;;3.93;;
151;SDS011;68;48.792;9.164;2022-07-29T00:02:35;4.40;;;3.20;;
151;SDS011;68;48.792;9.164;2022-07-29T00:05:02;5.00;;;3.50;;
151;SDS011;68;48.792;9.164;2022-07-29T00:07:30;5.13;;;3.73;;
151;SDS011;68;48.792;9.164;2022-07-29T00:09:57;4.57;;;3.10;;
151;SDS011;68;48.792;9.164;2022-07-29T00:12:25;4.10;;;2.93;;
151;SDS011;68;48.792;9.164;2022-07-29T00:14:52;4.13;;;3.43;;
151;SDS011;68;48.792;9.164;2022-07-29T00:17:20;4.17;;;3.50;;
151;SDS011;68;48.792;9.164;2022-07-29T00:19:47;4.53;;;3.60;;
151;SDS011;68;48.792;9.164;2022-07-29T00:22:14;5.13;;;3.60;;
151;SDS011;68;48.792;9.164;2022-07-29T00:24:41;5.10;;;3.37;;
151;SDS011;68;48.792;9.164;2022-07-29T00:27:08;4.73;;;3.33;;
151;SDS011;68;48.792;9.164;2022-07-29T00:29:36;4.00;;;3.30;;
151;SDS011;68;48.792;9.164;2022-07-29T00:32:03;7.03;;;3.70;;
151;SDS011;68;48.792;9.164;2022-07-29T00:34:30;5.20;;;3.73;;
151;SDS011;68;48.792;9.164;2022-07-29T00:37:14;4.50;;;3.37;;
151;SDS011;68;48.792;9.164;2022-07-29T00:39:41;4.70;;;3.70;;
151;SDS011;68;48.792;9.164;2022-07-29T00:42:08;4.53;;;3.50;;
151;SDS011;68;48.792;9.164;2022-07-29T00:44:37;5.33;;;3.63;;
151;SDS011;68;48.792;9.164;2022-07-29T00:47:04;5.63;;;3.60;;
151;SDS011;68;48.792;9.164;2022-07-29T00:49:32;5.23;;;3.67;;
151;SDS011;68;48.792;9.164;2022-07-29T00:52:00;4.10;;;2.97;;
151;SDS011;68;48.792;9.164;2022-07-29T00:54:27;4.80;;;3.77;;
151;SDS011;68;48.792;9.164;2022-07-29T00:56:55;5.90;;;4.00;;
151;SDS011;68;48.792;9.164;2022-07-29T00:59:23;4.77;;;3.40;;
151;SDS011;68;48.792;9.164;2022-07-29T01:01:52;5.43;;;3.63;;
151;SDS011;68;48.792;9.164;2022-07-29T01:04:19;5.07;;;3.77;;
151;SDS011;68;48.792;9.164;2022-07-29T01:06:46;4.73;;;3.50;;
151;SDS011;68;48.792;9.164;2022-07-29T01:09:13;5.47;;;3.77;;
151;SDS011;68;48.792;9.164;2022-07-29T01:11:41;4.77;;;3.53;;
151;SDS011;68;48.792;9.164;2022-07-29T01:14:09;5.43;;;3.30;;
151;SDS011;68;48.792;9.164;2022-07-29T01:16:42;4.03;;;3.10;;
151;SDS011;68;48.792;9.164;2022-07-29T01:19:18;6.20;;;3.70;;
151;SDS011;68;48.792;9.164;2022-07-29T01:21:59;4.53;;;3.20;;
151;SDS011;68;48.792;9.164;2022-07-29T01:24:39;4.63;;;3.37;;
151;SDS011;68;48.792;9.164;2022-07-29T01:27:23;3.30;;;2.90;;
151;SDS011;68;48.792;9.164;2022-07-29T01:30:03;5.43;;;3.20;;
151;SDS011;68;48.792;9.164;2022-07-29T01:32:33;3.63;;;3.00;;
151;SDS011;68;48.792;9.164;2022-07-29T01:35:03;4.60;;;3.30;;
151;SDS011;68;48.792;9.164;2022-07-29T01:37:33;5.60;;;3.40;;
151;SDS011;68;48.792;9.164;2022-07-29T01:40:04;4.70;;;3.43;;
151;SDS011;68;48.792;9.164;2022-07-29T01:42:35;4.70;;;3.50;;
151;SDS011;68;48.792;9.164;2022-07-29T01:45:08;4.60;;;3.13;;
151;SDS011;68;48.792;9.164;2022-07-29T01:47:41;3.50;;;3.20;;
151;SDS011;68;48.792;9.164;2022-07-29T01:50:12;4.87;;;3.30;;
151;SDS011;68;48.792;9.164;2022-07-29T01:52:43;5.33;;;3.50;;
151;SDS011;68;48.792;9.164;2022-07-29T01:55:15;4.63;;;3.57;;
151;SDS011;68;48.792;9.164;2022-07-29T01:57:45;4.30;;;3.63;;
151;SDS011;68;48.792;9.164;2022-07-29T02:00:15;4.70;;;3.30;;
151;SDS011;68;48.792;9.164;2022-07-29T02:02:43;4.77;;;3.43;;
151;SDS011;68;48.792;9.164;2022-07-29T02:05:13;5.30;;;3.80;;
151;SDS011;68;48.792;9.164;2022-07-29T02:07:42;4.97;;;3.80;;
151;SDS011;68;48.792;9.164;2022-07-29T02:10:10;3.90;;;3.40;;
151;SDS011;68;48.792;9.164;2022-07-29T02:12:38;5.23;;;3.60;;
151;SDS011;68;48.792;9.164;2022-07-29T02:15:08;4.83;;;3.33;;
151;SDS011;68;48.792;9.164;2022-07-29T02:17:39;5.67;;;3.67;;
151;SDS011;68;48.792;9.164;2022-07-29T02:20:08;4.30;;;3.40;;
151;SDS011;68;48.792;9.164;2022-07-29T02:22:37;3.73;;;2.93;;
151;SDS011;68;48.792;9.164;2022-07-29T02:25:05;4.27;;;3.13;;
151;SDS011;68;48.792;9.164;2022-07-29T02:27:34;4.07;;;3.07;;
151;SDS011;68;48.792;9.164;2022-07-29T02:30:03;4.13;;;3.23;;
151;SDS011;68;48.792;9.164;2022-07-29T02:32:31;5.20;;;3.50;;
151;SDS011;68;48.792;9.164;2022-07-29T02:35:01;4.87;;;3.93;;
151;SDS011;68;48.792;9.164;2022-07-29T02:37:29;5.20;;;3.80;;
151;SDS011;68;48.792;9.164;2022-07-29T02:39:58;4.43;;;3.10;;
151;SDS011;68;48.792;9.164;2022-07-29T02:42:26;3.80;;;3.10;;
151;SDS011;68;48.792;9.164;2022-07-29T02:44:53;4.27;;;3.30;;
151;SDS011;68;48.792;9.164;2022-07-29T02:47:21;4.40;;;3.10;;
151;SDS011;68;48.792;9.164;2022-07-29T02:49:52;5.00;;;3.53;;
151;SDS011;68;48.792;9.164;2022-07-29T02:52:26;3.43;;;2.93;;
151;SDS011;68;48.792;9.164;2022-07-29T02:54:58;3.90;;;2.93;;
151;SDS011;68;48.792;9.164;2022-07-29T02:57:30;3.60;;;3.10;;
151;SDS011;68;48.792;9.164;2022-07-29T03:00:03;3.93;;;2.90;;
151;SDS011;68;48.792;9.164;2022-07-29T03:02:33;3.80;;;2.83;;
151;SDS011;68;48.792;9.164;2022-07-29T03:05:03;4.67;;;3.07;;
151;SDS011;68;48.792;9.164;2022-07-29T03:07:32;3.07;;;2.77;;
151;SDS011;68;48.792;9.164;2022-07-29T03:10:00;3.40;;;2.90;;
151;SDS011;68;48.792;9.164;2022-07-29T03:12:28;4.00;;;3.10;;
151;SDS011;68;48.792;9.164;2022-07-29T03:14:57;3.60;;;2.90;;
151;SDS011;68;48.792;9.164;2022-07-29T03:17:25;2.73;;;2.60;;
151;SDS011;68;48.792;9.164;2022-07-29T03:19:52;6.43;;;3.60;;
151;SDS011;68;48.792;9.164;2022-07-29T03:22:19;4.73;;;3.00;;
151;SDS011;68;48.792;9.164;2022-07-29T03:24:48;4.50;;;3.53;;
151;SDS011;68;48.792;9.164;2022-07-29T03:27:15;3.70;;;2.70;;
151;SDS011;68;48.792;9.164;2022-07-29T03:29:42;5.30;;;3.33;;
151;SDS011;68;48.792;9.164;2022-07-29T03:32:09;3.40;;;2.77;;
151;SDS011;68;48.792;9.164;2022-07-29T03:34:36;3.40;;;2.80;;
151;SDS011;68;48.792;9.164;2022-07-29T03:37:04;4.90;;;3.17;;
151;SDS011;68;48.792;9.164;2022-07-29T03:39:33;4.57;;;3.30;;
151;SDS011;68;48.792;9.164;2022-07-29T03:42:05;3.87;;;3.10;;
151;SDS011;68;48.792;9.164;2022-07-29T03:44:34;4.50;;;3.27;;
151;SDS011;68;48.792;9.164;2022-07-29T03:47:02;5.30;;;3.10;;
151;SDS011;68;48.792;9.164;2022-07-29T03:49:32;3.93;;;2.90;;
151;SDS011;68;48.792;9.164;2022-07-29T03:52:02;3.90;;;3.00;;
151;SDS011;68;48.792;9.164;2022-07-29T03:54:29;3.67;;;2.97;;
151;SDS011;68;48.792;9.164;2022-07-29T03:56:57;5.57;;;3.37;;
151;SDS011;68;48.792;9.164;2022-07-29T03:59:28;4.63;;;3.20;;
151;SDS011;68;48.792;9.164;2022-07-29T04:01:59;4.90;;;3.20;;
151;SDS011;68;48.792;9.164;2022-07-29T04:04:28;5.70;;;4.40;;
151;SDS011;68;48.792;9.164;2022-07-29T04:06:55;3.37;;;3.03;;
151;SDS011;68;48.792;9.164;2022-07-29T04:09:21;3.80;;;3.20;;
151;SDS011;68;48.792;9.164;2022-07-29T04:11:48;4.07;;;2.97;;
151;SDS011;68;48.792;9.164;2022-07-29T04:14:15;3.90;;;3.00;;
151;SDS011;68;48.792;9.164;2022-07-29T04:16:43;3.73;;;3.20;;
151;SDS011;68;48.792;9.164;2022-07-29T04:19:10;5.60;;;3.30;;
151;SDS011;68;48.792;9.164;2022-07-29T04:21:37;3.93;;;3.03;;
151;SDS011;68;48.792;9.164;2022-07-29T04:24:05;3.73;;;3.10;;
151;SDS011;68;48.792;9.164;2022-07-29T04:26:32;4.80;;;3.23;;
151;SDS011;68;48.792;9.164;2022-07-29T04:28:59;3.10;;;2.67;;
151;SDS011;68;48.792;9.164;2022-07-29T04:31:26;3.30;;;2.73;;
151;SDS011;68;48.792;9.164;2022-07-29T04:33:54;3.80;;;2.83;;
151;SDS011;68;48.792;9.164;2022-07-29T04:36:21;3.20;;;2.70;;
151;SDS011;68;48.792;9.164;2022-07-29T04:38:48;4.87;;;3.47;;
151;SDS011;68;48.792;9.164;2022-07-29T04:41:15;4.93;;;3.40;;
151;SDS011;68;48.792;9.164;2022-07-29T04:43:42;4.40;;;3.40;;
151;SDS011;68;48.792;9.164;2022-07-29T04:46:08;4.33;;;2.70;;
151;SDS011;68;48.792;9.164;2022-07-29T04:48:35;3.07;;;2.80;;
151;SDS011;68;48.792;9.164;2022-07-29T04:51:03;3.77;;;2.80;;
151;SDS011;68;48.792;9.164;2022-07-29T04:53:30;3.80;;;2.80;;
151;SDS011;68;48.792;9.164;2022-07-29T04:55:57;3.63;;;2.90;;
151;SDS011;68;48.792;9.164;2022-07-29T04:58:24;3.03;;;2.50;;
151;SDS011;68;48.792;9.164;2022-07-29T05:00:51;2.60;;;2.40;;
151;SDS011;68;48.792;9.164;2022-07-29T05:03:18;3.40;;;2.60;;
151;SDS011;68;48.792;9.164;2022-07-29T05:05:44;4.90;;;3.17;;
151;SDS011;68;48.792;9.164;2022-07-29T05:08:13;3.17;;;2.47;;
151;SDS011;68;48.792;9.164;2022-07-29T05:10:40;4.33;;;2.70;;
151;SDS011;68;48.792;9.164;2022-07-29T05:13:07;4.00;;;2.90;;
151;SDS011;68;48.792;9.164;2022-07-29T05:15:34;3.33;;;2.80;;
151;SDS011;68;48.792;9.164;2022-07-29T05:18:01;4.30;;;3.20;;
151;SDS011;68;48.792;9.164;2022-07-29T05:20:28;3.47;;;2.73;;
151;SDS011;68;48.792;9.164;2022-07-29T05:22:56;2.90;;;2.67;;
151;SDS011;68;48.792;9.164;2022-07-29T05:25:25;3.07;;;2.50;;
151;SDS011;68;48.792;9.164;2022-07-29T05:27:52;3.10;;;2.60;;
151;SDS011;68;48.792;9.164;2022-07-29T05:30:19;2.83;;;2.40;;
151;SDS011;68;48.792;9.164;2022-07-29T05:32:47;2.90;;;2.33;;
151;SDS011;68;48.792;9.164;2022-07-29T05:35:14;2.97;;;2.20;;
151;SDS011;68;48.792;9.164;2022-07-29T05:37:41;3.70;;;2.43;;
151;SDS011;68;48.792;9.164;2022-07-29T05:40:09;4.03;;;2.73;;
151;SDS011;68;48.792;9.164;2022-07-29T05:42:38;3.70;;;3.10;;
151;SDS011;68;48.792;9.164;2022-07-29T05:45:05;3.60;;;2.80;;
151;SDS011;68;48.792;9.164;2022-07-29T05:47:32;4.10;;;2.80;;
151;SDS011;68;48.792;9.164;2022-07-29T05:49:59;2.73;;;2.37;;
151;SDS011;68;48.792;9.164;2022-07-29T05:52:26;5.73;;;2.60;;
151;SDS011;68;48.792;9.164;2022-07-29T05:54:53;2.97;;;2.50;;
151;SDS011;68;48.792;9.164;2022-07-29T05:57:21;2.80;;;2.60;;
151;SDS011;68;48.792;9.164;2022-07-29T05:59:50;2.80;;;2.50;;
151;SDS011;68;48.792;9.164;2022-07-29T06:02:17;3.07;;;2.53;;
151;SDS011;68;48.792;9.164;2022-07-29T06:04:45;3.00;;;2.70;;
151;SDS011;68;48.792;9.164;2022-07-29T06:07:11;3.37;;;2.67;;
151;SDS011;68;48.792;9.164;2022-07-29T06:09:38;2.80;;;2.40;;
151;SDS011;68;48.792;9.164;2022-07-29T06:12:05;3.77;;;2.80;;
151;SDS011;68;48.792;9.164;2022-07-29T06:14:32;3.80;;;2.83;;
151;SDS011;68;48.792;9.164;2022-07-29T06:17:01;3.10;;;2.70;;
151;SDS011;68;48.792;9.164;2022-07-29T06:19:28;3.63;;;3.00;;
151;SDS011;68;48.792;9.164;2022-07-29T06:21:55;4.33;;;2.97;;
151;SDS011;68;48.792;9.164;2022-07-29T06:24:21;2.20;;;2.03;;
151;SDS011;68;48.792;9.164;2022-07-29T06:26:48;3.40;;;2.47;;
151;SDS011;68;48.792;9.164;2022-07-29T06:29:15;4.10;;;2.53;;
151;SDS011;68;48.792;9.164;2022-07-29T06:31:42;3.50;;;2.60;;
151;SDS011;68;48.792;9.164;2022-07-29T06:34:10;3.20;;;2.60;;
151;SDS011;68;48.792;9.164;2022-07-29T06:36:37;3.70;;;2.63;;
151;SDS011;68;48.792;9.164;2022-07-29T06:39:04;3.33;;;2.60;;
151;SDS011;68;48.792;9.164;2022-07-29T06:41:32;3.30;;;2.70;;
151;SDS011;68;48.792;9.164;2022-07-29T06:43:59;3.23;;;2.60;;
151;SDS011;68;48.792;9.164;2022-07-29T06:46:26;2.73;;;2.50;;
151;SDS011;68;48.792;9.164;2022-07-29T06:48:53;2.90;;;2.33;;
151;SDS011;68;48.792;9.164;2022-07-29T06:51:22;2.43;;;2.30;;
151;SDS011;68;48.792;9.164;2022-07-29T06:53:49;4.03;;;2.90;;
151;SDS011;68;48.792;9.164;2022-07-29T06:56:16;4.50;;;2.80;;
151;SDS011;68;48.792;9.164;2022-07-29T06:58:43;3.97;;;2.80;;
151;SDS011;68;48.792;9.164;2022-07-29T07:01:09;3.17;;;2.53;;
151;SDS011;68;48.792;9.164;2022-07-29T07:03:36;3.90;;;2.80;;
151;SDS011;68;48.792;9.164;2022-07-29T07:06:03;3.53;;;2.87;;
151;SDS011;68;48.792;9.164;2022-07-29T07:08:31;4.20;;;2.93;;
151;SDS011;68;48.792;9.164;2022-07-29T07:10:58;3.70;;;2.63;;
151;SDS011;68;48.792;9.164;2022-07-29T07:13:25;3.90;;;2.87;;
151;SDS011;68;48.792;9.164;2022-07-29T07:15:53;5.30;;;3.40;;
151;SDS011;68;48.792;9.164;2022-07-29T07:18:20;5.20;;;3.13;;
151;SDS011;68;48.792;9.164;2022-07-29T07:20:46;4.17;;;2.97;;
151;SDS011;68;48.792;9.164;2022-07-29T07:23:13;3.37;;;2.67;;
151;SDS011;68;48.792;9.164;2022-07-29T07:25:41;4.33;;;2.70;;
151;SDS011;68;48.792;9.164;2022-07-29T07:28:08;3.87;;;3.00;;
151;SDS011;68;48.792;9.164;2022-07-29T07:30:35;3.93;;;3.30;;
151;SDS011;68;48.792;9.164;2022-07-29T07:33:02;4.30;;;2.90;;
151;SDS011;68;48.792;9.164;2022-07-29T07:35:29;3.20;;;2.80;;
151;SDS011;68;48.792;9.164;2022-07-29T07:37:56;4.10;;;2.90;;
151;SDS011;68;48.792;9.164;2022-07-29T07:40:24;3.53;;;2.83;;
151;SDS011;68;48.792;9.164;2022-07-29T07:42:52;4.60;;;3.43;;
151;SDS011;68;48.792;9.164;2022-07-29T07:45:19;3.80;;;3.10;;
151;SDS011;68;48.792;9.164;2022-07-29T07:47:46;6.23;;;4.37;;
151;SDS011;68;48.792;9.164;2022-07-29T07:50:13;4.33;;;3.30;;
151;SDS011;68;48.792;9.164;2022-07-29T07:52:46;3.50;;;3.00;;
151;SDS011;68;48.792;9.164;2022-07-29T07:55:15;5.73;;;3.40;;
151;SDS011;68;48.792;9.164;2022-07-29T07:57:42;5.17;;;3.10;;
151;SDS011;68;48.792;9.164;2022-07-29T08:00:11;6.43;;;3.47;;
151;SDS011;68;48.792;9.164;2022-07-29T08:02:39;4.40;;;3.10;;
151;SDS011;68;48.792;9.164;2022-07-29T08:05:07;5.33;;;3.17;;
151;SDS011;68;48.792;9.164;2022-07-29T08:07:35;4.83;;;2.87;;
151;SDS011;68;48.792;9.164;2022-07-29T08:10:02;5.07;;;3.50;;
151;SDS011;68;48.792;9.164;2022-07-29T08:12:30;5.37;;;3.37;;
151;SDS011;68;48.792;9.164;2022-07-29T08:14:56;5.93;;;3.80;;
151;SDS011;68;48.792;9.164;2022-07-29T08:17:25;4.60;;;3.03;;
151;SDS011;68;48.792;9.164;2022-07-29T08:19:52;5.63;;;3.53;;
151;SDS011;68;48.792;9.164;2022-07-29T08:22:18;3.97;;;3.17;;
151;SDS011;68;48.792;9.164;2022-07-29T08:24:46;4.00;;;3.00;;
151;SDS011;68;48.792;9.164;2022-07-29T08:27:19;3.73;;;2.97;;
151;SDS011;68;48.792;9.164;2022-07-29T08:29:46;4.70;;;3.17;;
151;SDS011;68;48.792;9.164;2022-07-29T08:32:13;3.30;;;2.70;;
151;SDS011;68;48.792;9.164;2022-07-29T08:34:42;5.00;;;3.30;;
151;SDS011;68;48.792;9.164;2022-07-29T08:37:11;4.57;;;3.10;;
151;SDS011;68;48.792;9.164;2022-07-29T08:39:38;6.00;;;3.33;;
151;SDS011;68;48.792;9.164;2022-07-29T08:42:05;3.70;;;3.10;;
151;SDS011;68;48.792;9.164;2022-07-29T08:44:32;4.17;;;2.80;;
151;SDS011;68;48.792;9.164;2022-07-29T08:47:00;5.03;;;3.40;;
151;SDS011;68;48.792;9.164;2022-07-29T08:49:27;4.10;;;3.00;;
151;SDS011;68;48.792;9.164;2022-07-29T08:51:56;4.30;;;3.23;;
151;SDS011;68;48.792;9.164;2022-07-29T08:54:24;5.40;;;3.40;;
151;SDS011;68;48.792;9.164;2022-07-29T08:56:51;5.10;;;3.37;;
151;SDS011;68;48.792;9.164;2022-07-29T08:59:19;4.10;;;3.10;;
151;SDS011;68;48.792;9.164;2022-07-29T09:01:48;4.43;;;3.00;;
151;SDS011;68;48.792;9.164;2022-07-29T09:04:16;3.30;;;2.80;;
151;SDS011;68;48.792;9.164;2022-07-29T09:06:46;4.50;;;3.40;;
151;SDS011;68;48.792;9.164;2022-07-29T09:09:16;5.23;;;3.40;;
151;SDS011;68;48.792;9.164;2022-07-29T09:11:43;4.70;;;3.30;;
151;SDS011;68;48.792;9.164;2022-07-29T09:14:11;4.30;;;2.90;;
151;SDS011;68;48.792;9.164;2022-07-29T09:16:45;4.70;;;3.07;;
151;SDS011;68;48.792;9.164;2022-07-29T09:19:20;4.57;;;3.20;;
151;SDS011;68;48.792;9.164;2022-07-29T09:21:48;5.50;;;3.43;;
151;SDS011;68;48.792;9.164;2022-07-29T09:24:26;4.73;;;3.40;;
151;SDS011;68;48.792;9.164;2022-07-29T09:27:01;3.87;;;2.93;;
151;SDS011;68;48.792;9.164;2022-07-29T09:29:28;4.80;;;3.43;;
151;SDS011;68;48.792;9.164;2022-07-29T09:31:56;4.00;;;2.97;;
151;SDS011;68;48.792;9.164;2022-07-29T09:34:23;4.30;;;3.17;;
151;SDS011;68;48.792;9.164;2022-07-29T09:36:52;6.47;;;3.77;;
151;SDS011;68;48.792;9.164;2022-07-29T09:39:28;4.57;;;3.30;;
151;SDS011;68;48.792;9.164;2022-07-29T09:41:56;5.40;;;3.50;;
151;SDS011;68;48.792;9.164;2022-07-29T09:44:24;3.60;;;2.97;;
151;SDS011;68;48.792;9.164;2022-07-29T09:46:53;3.73;;;2.77;;
151;SDS011;68;48.792;9.164;2022-07-29T09:49:21;4.77;;;3.57;;
151;SDS011;68;48.792;9.164;2022-07-29T09:51:47;4.67;;;3.47;;
151;SDS011;68;48.792;9.164;2022-07-29T09:54:26;4.20;;;3.20;;
151;SDS011;68;48.792;9.164;2022-07-29T09:57:01;6.30;;;3.53;;
151;SDS011;68;48.792;9.164;2022-07-29T09:59:29;5.50;;;3.20;;
151;SDS011;68;48.792;9.164;2022-07-29T10:01:56;3.70;;;3.20;;
151;SDS011;68;48.792;9.164;2022-07-29T10:04:23;4.50;;;3.37;;
151;SDS011;68;48.792;9.164;2022-07-29T10:06:56;4.17;;;3.43;;
151;SDS011;68;48.792;9.164;2022-07-29T10:09:25;4.60;;;3.40;;
151;SDS011;68;48.792;9.164;2022-07-29T10:12:09;3.50;;;2.90;;
151;SDS011;68;48.792;9.164;2022-07-29T10:14:38;4.43;;;3.20;;
151;SDS011;68;48.792;9.164;2022-07-29T10:17:06;4.90;;;3.33;;
151;SDS011;68;48.792;9.164;2022-07-29T10:19:36;4.63;;;3.57;;
151;SDS011;68;48.792;9.164;2022-07-29T10:22:05;4.00;;;3.23;;
151;SDS011;68;48.792;9.164;2022-07-29T10:24:32;4.50;;;3.27;;
151;SDS011;68;48.792;9.164;2022-07-29T10:27:01;9.30;;;3.50;;
151;SDS011;68;48.792;9.164;2022-07-29T10:29:31;3.50;;;3.07;;
151;SDS011;68;48.792;9.164;2022-07-29T10:32:07;4.00;;;3.30;;
151;SDS011;68;48.792;9.164;2022-07-29T10:35:08;5.93;;;3.90;;
151;SDS011;68;48.792;9.164;2022-07-29T10:37:49;4.90;;;3.50;;
151;SDS011;68;48.792;9.164;2022-07-29T10:40:31;5.50;;;3.80;;
151;SDS011;68;48.792;9.164;2022-07-29T10:43:24;5.27;;;3.50;;
151;SDS011;68;48.792;9.164;2022-07-29T10:45:56;5.03;;;3.70;;
151;SDS011;68;48.792;9.164;2022-07-29T10:48:25;4.93;;;3.03;;
151;SDS011;68;48.792;9.164;2022-07-29T10:50:53;4.60;;;3.20;;
151;SDS011;68;48.792;9.164;2022-07-29T10:53:21;4.77;;;3.43;;
151;SDS011;68;48.792;9.164;2022-07-29T10:55:48;8.63;;;3.97;;
151;SDS011;68;48.792;9.164;2022-07-29T10:58:16;4.90;;;3.60;;
151;SDS011;68;48.792;9.164;2022-07-29T11:00:45;5.27;;;3.73;;
151;SDS011;68;48.792;9.164;2022-07-29T11:06:14;5.53;;;4.07;;
151;SDS011;68;48.792;9.164;2022-07-29T11:08:42;5.17;;;3.53;;
151;SDS011;68;48.792;9.164;2022-07-29T11:14:07;8.20;;;3.90;;
151;SDS011;68;48.792;9.164;2022-07-29T11:19:30;6.47;;;4.30;;
151;SDS011;68;48.792;9.164;2022-07-29T11:21:57;7.27;;;4.90;;
151;SDS011;68;48.792;9.164;2022-07-29T11:24:25;5.90;;;4.10;;
151;SDS011;68;48.792;9.164;2022-07-29T11:27:12;7.10;;;4.83;;
151;SDS011;68;48.792;9.164;2022-07-29T11:29:48;7.47;;;4.50;;
151;SDS011;68;48.792;9.164;2022-07-29T11:32:17;7.03;;;5.00;;
151;SDS011;68;48.792;9.164;2022-07-29T11:34:47;6.50;;;4.50;;
151;SDS011;68;48.792;9.164;2022-07-29T11:37:17;8.10;;;5.03;;
151;SDS011;68;48.792;9.164;2022-07-29T11:39:46;7.07;;;4.90;;
151;SDS011;68;48.792;9.164;2022-07-29T11:42:37;6.23;;;4.33;;
151;SDS011;68;48.792;9.164;2022-07-29T11:45:12;7.00;;;4.70;;
151;SDS011;68;48.792;9.164;2022-07-29T11:47:47;10.27;;;5.10;;
151;SDS011;68;48.792;9.164;2022-07-29T11:50:17;6.53;;;4.70;;
151;SDS011;68;48.792;9.164;2022-07-29T11:53:00;7.20;;;4.73;;
151;SDS011;68;48.792;9.164;2022-07-29T11:55:29;6.97;;;5.03;;
151;SDS011;68;48.792;9.164;2022-07-29T11:58:00;9.23;;;5.80;;
151;SDS011;68;48.792;9.164;2022-07-29T12:00:29;7.70;;;4.63;;
151;SDS011;68;48.792;9.164;2022-07-29T12:02:57;8.00;;;5.10;;
151;SDS011;68;48.792;9.164;2022-07-29T12:05:37;10.10;;;4.87;;
151;SDS011;68;48.792;9.164;2022-07-29T12:08:14;8.20;;;4.90;;
151;SDS011;68;48.792;9.164;2022-07-29T12:10:44;7.93;;;4.50;;
151;SDS011;68;48.792;9.164;2022-07-29T12:13:12;6.53;;;4.50;;
151;SDS011;68;48.792;9.164;2022-07-29T12:15:39;6.60;;;4.10;;
151;SDS011;68;48.792;9.164;2022-07-29T12:18:09;5.50;;;3.87;;
151;SDS011;68;48.792;9.164;2022-07-29T12:20:38;5.40;;;4.13;;
151;SDS011;68;48.792;9.164;2022-07-29T12:23:06;6.60;;;3.97;;
151;SDS011;68;48.792;9.164;2022-07-29T12:25:35;4.60;;;3.40;;
151;SDS011;68;48.792;9.164;2022-07-29T12:28:03;5.67;;;3.80;;
151;SDS011;68;48.792;9.164;2022-07-29T12:30:41;4.30;;;3.23;;
151;SDS011;68;48.792;9.164;2022-07-29T12:33:14;6.53;;;4.00;;
151;SDS011;68;48.792;9.164;2022-07-29T12:35:48;5.37;;;3.80;;
151;SDS011;68;48.792;9.164;2022-07-29T12:38:16;4.80;;;3.50;;
151;SDS011;68;48.792;9.164;2022-07-29T12:40:44;4.83;;;3.50;;
151;SDS011;68;48.792;9.164;2022-07-29T12:43:13;5.80;;;3.43;;
151;SDS011;68;48.792;9.164;2022-07-29T12:45:41;4.50;;;2.97;;
151;SDS011;68;48.792;9.164;2022-07-29T12:48:09;6.60;;;4.13;;
151;SDS011;68;48.792;9.164;2022-07-29T12:50:37;5.80;;;3.80;;
151;SDS011;68;48.792;9.164;2022-07-29T12:53:19;4.63;;;3.30;;
151;SDS011;68;48.792;9.164;2022-07-29T12:55:46;4.50;;;3.30;;
151;SDS011;68;48.792;9.164;2022-07-29T12:58:29;4.20;;;3.33;;
151;SDS011;68;48.792;9.164;2022-07-29T13:01:01;3.97;;;3.10;;
151;SDS011;68;48.792;9.164;2022-07-29T13:03:41;5.10;;;3.73;;
151;SDS011;68;48.792;9.164;2022-07-29T13:08:59;5.67;;;4.27;;
151;SDS011;68;48.792;9.164;2022-07-29T13:11:29;5.87;;;4.07;;
151;SDS011;68;48.792;9.164;2022-07-29T13:13:56;5.37;;;3.90;;
151;SDS011;68;48.792;9.164;2022-07-29T13:16:23;6.80;;;3.60;;
151;SDS011;68;48.792;9.164;2022-07-29T13:19:02;5.50;;;3.80;;
151;SDS011;68;48.792;9.164;2022-07-29T13:21:35;3.70;;;3.17;;
151;SDS011;68;48.792;9.164;2022-07-29T13:24:03;4.90;;;3.80;;
151;SDS011;68;48.792;9.164;2022-07-29T13:26:30;5.80;;;3.87;;
151;SDS011;68;48.792;9.164;2022-07-29T13:28:57;4.40;;;3.60;;
151;SDS011;68;48.792;9.164;2022-07-29T13:31:24;7.50;;;3.90;;
151;SDS011;68;48.792;9.164;2022-07-29T13:33:51;4.80;;;3.53;;
151;SDS011;68;48.792;9.164;2022-07-29T13:36:18;5.67;;;3.60;;
151;SDS011;68;48.792;9.164;2022-07-29T13:38:46;5.50;;;3.70;;
151;SDS011;68;48.792;9.164;2022-07-29T13:41:13;5.57;;;3.53;;
151;SDS011;68;48.792;9.164;2022-07-29T13:43:40;5.70;;;4.20;;
151;SDS011;68;48.792;9.164;2022-07-29T13:46:07;6.20;;;3.67;;
151;SDS011;68;48.792;9.164;2022-07-29T13:48:33;9.73;;;3.87;;
151;SDS011;68;48.792;9.164;2022-07-29T13:51:00;5.03;;;3.80;;
151;SDS011;68;48.792;9.164;2022-07-29T13:53:27;5.63;;;4.13;;
151;SDS011;68;48.792;9.164;2022-07-29T13:55:55;6.67;;;4.17;;
151;SDS011;68;48.792;9.164;2022-07-29T13:58:22;4.93;;;3.83;;
151;SDS011;68;48.792;9.164;2022-07-29T14:00:49;5.67;;;4.17;;
151;SDS011;68;48.792;9.164;2022-07-29T14:03:16;5.50;;;3.93;;
151;SDS011;68;48.792;9.164;2022-07-29T14:05:43;6.70;;;4.37;;
151;SDS011;68;48.792;9.164;2022-07-29T14:08:09;4.57;;;3.80;;
151;SDS011;68;48.792;9.164;2022-07-29T14:10:36;5.33;;;3.90;;
151;SDS011;68;48.792;9.164;2022-07-29T14:13:04;5.40;;;4.03;;
151;SDS011;68;48.792;9.164;2022-07-29T14:15:31;6.63;;;4.87;;
151;SDS011;68;48.792;9.164;2022-07-29T14:17:58;5.33;;;3.93;;
151;SDS011;68;48.792;9.164;2022-07-29T14:20:25;5.67;;;4.20;;
151;SDS011;68;48.792;9.164;2022-07-29T14:22:53;6.70;;;4.13;;
151;SDS011;68;48.792;9.164;2022-07-29T14:25:20;6.90;;;4.57;;
151;SDS011;68;48.792;9.164;2022-07-29T14:27:47;6.00;;;4.63;;
151;SDS011;68;48.792;9.164;2022-07-29T14:30:15;6.70;;;4.00;;
151;SDS011;68;48.792;9.164;2022-07-29T14:32:41;5.20;;;3.70;;
151;SDS011;68;48.792;9.164;2022-07-29T14:35:09;4.83;;;3.80;;
151;SDS011;68;48.792;9.164;2022-07-29T14:37:36;6.10;;;4.37;;
151;SDS011;68;48.792;9.164;2022-07-29T14:40:03;8.07;;;4.10;;
151;SDS011;68;48.792;9.164;2022-07-29T14:42:30;5.50;;;3.80;;
151;SDS011;68;48.792;9.164;2022-07-29T14:44:57;5.70;;;3.97;;
151;SDS011;68;48.792;9.164;2022-07-29T14:47:25;5.97;;;4.20;;
151;SDS011;68;48.792;9.164;2022-07-29T14:49:52;5.57;;;4.33;;
151;SDS011;68;48.792;9.164;2022-07-29T14:52:19;7.37;;;4.50;;
151;SDS011;68;48.792;9.164;2022-07-29T14:54:46;6.87;;;4.40;;
151;SDS011;68;48.792;9.164;2022-07-29T14:57:13;5.30;;;3.83;;
151;SDS011;68;48.792;9.164;2022-07-29T14:59:39;5.40;;;3.50;;
151;SDS011;68;48.792;9.164;2022-07-29T15:02:06;5.50;;;3.97;;
151;SDS011;68;48.792;9.164;2022-07-29T15:04:34;5.33;;;3.63;;
151;SDS011;68;48.792;9.164;2022-07-29T15:07:01;6.97;;;3.80;;
151;SDS011;68;48.792;9.164;2022-07-29T15:09:28;4.50;;;2.90;;
151;SDS011;68;48.792;9.164;2022-07-29T15:11:55;5.20;;;3.67;;
151;SDS011;68;48.792;9.164;2022-07-29T15:14:22;6.50;;;4.07;;
151;SDS011;68;48.792;9.164;2022-07-29T15:16:49;4.90;;;3.70;;
151;SDS011;68;48.792;9.164;2022-07-29T15:19:16;5.30;;;3.83;;
151;SDS011;68;48.792;9.164;2022-07-29T15:21:44;4.20;;;3.27;;
151;SDS011;68;48.792;9.164;2022-07-29T15:24:11;5.80;;;4.10;;
151;SDS011;68;48.792;9.164;2022-07-29T15:26:37;5.73;;;4.00;;
151;SDS011;68;48.792;9.164;2022-07-29T15:29:04;6.57;;;4.00;;
151;SDS011;68;48.792;9.164;2022-07-29T15:31:31;4.00;;;3.23;;
151;SDS011;68;48.792;9.164;2022-07-29T15:33:58;5.43;;;4.20;;
151;SDS011;68;48.792;9.164;2022-07-29T15:36:25;5.33;;;3.93;;
151;SDS011;68;48.792;9.164;2022-07-29T15:38:53;4.70;;;3.73;;
151;SDS011;68;48.792;9.164;2022-07-29T15:41:21;5.47;;;3.90;;
151;SDS011;68;48.792;9.164;2022-07-29T15:43:48;8.33;;;4.17;;
151;SDS011;68;48.792;9.164;2022-07-29T15:46:16;4.70;;;3.93;;
151;SDS011;68;48.792;9.164;2022-07-29T15:49:04;4.60;;;3.70;;
151;SDS011;68;48.792;9.164;2022-07-29T15:51:32;4.50;;;3.60;;
151;SDS011;68;48.792;9.164;2022-07-29T15:54:01;5.30;;;3.70;;
151;SDS011;68;48.792;9.164;2022-07-29T15:56:28;5.50;;;3.73;;
151;SDS011;68;48.792;9.164;2022-07-29T15:58:55;4.73;;;3.60;;
151;SDS011;68;48.792;9.164;2022-07-29T16:01:23;4.83;;;4.00;;
151;SDS011;68;48.792;9.164;2022-07-29T16:03:50;5.57;;;4.00;;
151;SDS011;68;48.792;9.164;2022-07-29T16:06:17;5.63;;;3.90;;
151;SDS011;68;48.792;9.164;2022-07-29T16:08:44;5.63;;;3.90;;
151;SDS011;68;48.792;9.164;2022-07-29T16:11:12;6.40;;;4.67;;
151;SDS011;68;48.792;9.164;2022-07-29T16:13:39;7.00;;;4.33;;
151;SDS011;68;48.792;9.164;2022-07-29T16:16:06;6.20;;;4.27;;
151;SDS011;68;48.792;9.164;2022-07-29T16:18:32;8.40;;;4.40;;
151;SDS011;68;48.792;9.164;2022-07-29T16:20:59;7.63;;;4.80;;
151;SDS011;68;48.792;9.164;2022-07-29T16:23:26;5.20;;;3.87;;